sensor_id;sensor_type;location;lat;lon;timestamp;P1;durP1;ratioP1;P2;durP2;ratioP2
15393;SDS011;7795;47.986;11.868;2024-01-30T00:02:07;4.27;;;2.97;;
15393;SDS011;7795;47.986;11.868;2024-01-30T00:04:33;3.87;;;2.90;;
15393;SDS011;7795;47.986;11.868;2024-01-30T00:06:59;5.53;;;3.30;;
15393;SDS011;7795;47.986;11.868;2024-01-30T00:09:24;4.80;;;3.23;;
15393;SDS011;7795;47.986;11.868;2024-01-30T00:11:50;4.00;;;2.80;;
15393;SDS011;7795;47.986;11.868;2024-01-30T00:14:16;4.23;;;3.37;;
15393;SDS011;7795;47.986;11.868;2024-01-30T00:16:41;3.80;;;3.40;;
15393;SDS011;7795;47.986;11.868;2024-01-30T00:19:08;5.57;;;3.00;;
15393;SDS011;7795;47.986;11.868;2024-01-30T00:21:34;4.47;;;3.20;;
15393;SDS011;7795;47.986;11.868;2024-01-30T00:24:00;5.23;;;3.50;;
15393;SDS011;7795;47.986;11.868;2024-01-30T00:26:26;3.83;;;3.20;;
15393;SDS011;7795;47.986;11.868;2024-01-30T00:28:51;5.50;;;3.67;;
15393;SDS011;7795;47.986;11.868;2024-01-30T00:31:17;3.60;;;3.30;;
15393;SDS011;7795;47.986;11.868;2024-01-30T00:33:43;4.30;;;3.50;;
15393;SDS011;7795;47.986;11.868;2024-01-30T00:36:10;4.50;;;3.50;;
15393;SDS011;7795;47.986;11.868;2024-01-30T00:38:36;3.57;;;3.27;;
15393;SDS011;7795;47.986;11.868;2024-01-30T00:41:02;4.17;;;3.53;;
15393;SDS011;7795;47.986;11.868;2024-01-30T00:43:28;5.33;;;3.87;;
15393;SDS011;7795;47.986;11.868;2024-01-30T00:45:54;4.60;;;3.67;;
15393;SDS011;7795;47.986;11.868;2024-01-30T00:48:20;5.33;;;3.60;;
15393;SDS011;7795;47.986;11.868;2024-01-30T00:50:46;5.33;;;3.63;;
15393;SDS011;7795;47.986;11.868;2024-01-30T00:53:13;3.53;;;3.23;;
15393;SDS011;7795;47.986;11.868;2024-01-30T00:55:39;3.40;;;2.90;;
15393;SDS011;7795;47.986;11.868;2024-01-30T00:58:05;4.13;;;3.30;;
15393;SDS011;7795;47.986;11.868;2024-01-30T01:00:31;5.27;;;3.97;;
15393;SDS011;7795;47.986;11.868;2024-01-30T01:02:57;3.70;;;3.20;;
15393;SDS011;7795;47.986;11.868;2024-01-30T01:05:23;4.57;;;3.63;;
15393;SDS011;7795;47.986;11.868;2024-01-30T01:07:49;4.23;;;3.33;;
15393;SDS011;7795;47.986;11.868;2024-01-30T01:10:16;3.73;;;3.40;;
15393;SDS011;7795;47.986;11.868;2024-01-30T01:12:43;4.20;;;3.00;;
15393;SDS011;7795;47.986;11.868;2024-01-30T01:15:09;3.43;;;3.03;;
15393;SDS011;7795;47.986;11.868;2024-01-30T01:17:35;3.63;;;3.07;;
15393;SDS011;7795;47.986;11.868;2024-01-30T01:20:01;3.80;;;3.37;;
15393;SDS011;7795;47.986;11.868;2024-01-30T01:22:27;3.23;;;2.80;;
15393;SDS011;7795;47.986;11.868;2024-01-30T01:24:53;4.13;;;3.70;;
15393;SDS011;7795;47.986;11.868;2024-01-30T01:27:20;4.23;;;3.53;;
15393;SDS011;7795;47.986;11.868;2024-01-30T01:29:46;4.57;;;3.07;;
15393;SDS011;7795;47.986;11.868;2024-01-30T01:32:12;4.07;;;3.23;;
15393;SDS011;7795;47.986;11.868;2024-01-30T01:34:37;5.13;;;3.67;;
15393;SDS011;7795;47.986;11.868;2024-01-30T01:37:03;4.23;;;3.80;;
15393;SDS011;7795;47.986;11.868;2024-01-30T01:39:29;4.67;;;3.73;;
15393;SDS011;7795;47.986;11.868;2024-01-30T01:41:55;5.27;;;3.40;;
15393;SDS011;7795;47.986;11.868;2024-01-30T01:44:22;4.10;;;3.60;;
15393;SDS011;7795;47.986;11.868;2024-01-30T01:46:48;4.07;;;3.53;;
15393;SDS011;7795;47.986;11.868;2024-01-30T01:49:14;3.40;;;3.10;;
15393;SDS011;7795;47.986;11.868;2024-01-30T01:51:40;3.50;;;3.10;;
15393;SDS011;7795;47.986;11.868;2024-01-30T01:54:07;3.17;;;2.70;;
15393;SDS011;7795;47.986;11.868;2024-01-30T01:56:42;4.00;;;3.40;;
15393;SDS011;7795;47.986;11.868;2024-01-30T01:59:08;4.93;;;3.13;;
15393;SDS011;7795;47.986;11.868;2024-01-30T02:01:36;4.17;;;2.90;;
15393;SDS011;7795;47.986;11.868;2024-01-30T02:04:02;3.40;;;2.50;;
15393;SDS011;7795;47.986;11.868;2024-01-30T02:06:28;3.60;;;3.00;;
15393;SDS011;7795;47.986;11.868;2024-01-30T02:08:54;4.97;;;3.23;;
15393;SDS011;7795;47.986;11.868;2024-01-30T02:11:20;3.57;;;3.27;;
15393;SDS011;7795;47.986;11.868;2024-01-30T02:13:48;3.80;;;3.50;;
15393;SDS011;7795;47.986;11.868;2024-01-30T02:16:14;4.47;;;3.40;;
15393;SDS011;7795;47.986;11.868;2024-01-30T02:18:41;4.03;;;3.63;;
15393;SDS011;7795;47.986;11.868;2024-01-30T02:21:11;4.37;;;3.60;;
15393;SDS011;7795;47.986;11.868;2024-01-30T02:23:37;4.07;;;3.00;;
15393;SDS011;7795;47.986;11.868;2024-01-30T02:26:06;3.80;;;3.30;;
15393;SDS011;7795;47.986;11.868;2024-01-30T02:28:31;3.97;;;3.50;;
15393;SDS011;7795;47.986;11.868;2024-01-30T02:30:57;3.13;;;2.87;;
15393;SDS011;7795;47.986;11.868;2024-01-30T02:33:23;3.53;;;3.20;;
15393;SDS011;7795;47.986;11.868;2024-01-30T02:35:49;3.40;;;3.07;;
15393;SDS011;7795;47.986;11.868;2024-01-30T02:38:16;3.70;;;3.10;;
15393;SDS011;7795;47.986;11.868;2024-01-30T02:40:41;3.47;;;3.17;;
15393;SDS011;7795;47.986;11.868;2024-01-30T02:43:07;4.03;;;3.60;;
15393;SDS011;7795;47.986;11.868;2024-01-30T02:45:33;4.80;;;3.73;;
15393;SDS011;7795;47.986;11.868;2024-01-30T02:47:59;4.07;;;3.67;;
15393;SDS011;7795;47.986;11.868;2024-01-30T02:50:24;4.83;;;3.90;;
15393;SDS011;7795;47.986;11.868;2024-01-30T02:52:50;4.30;;;3.90;;
15393;SDS011;7795;47.986;11.868;2024-01-30T02:55:17;3.90;;;3.30;;
15393;SDS011;7795;47.986;11.868;2024-01-30T02:57:43;5.20;;;3.77;;
15393;SDS011;7795;47.986;11.868;2024-01-30T03:00:09;4.77;;;3.13;;
15393;SDS011;7795;47.986;11.868;2024-01-30T03:02:36;3.87;;;3.30;;
15393;SDS011;7795;47.986;11.868;2024-01-30T03:05:02;3.93;;;3.37;;
15393;SDS011;7795;47.986;11.868;2024-01-30T03:07:28;2.90;;;2.70;;
15393;SDS011;7795;47.986;11.868;2024-01-30T03:09:54;4.37;;;3.73;;
15393;SDS011;7795;47.986;11.868;2024-01-30T03:12:22;3.50;;;3.20;;
15393;SDS011;7795;47.986;11.868;2024-01-30T03:14:47;5.80;;;4.00;;
15393;SDS011;7795;47.986;11.868;2024-01-30T03:17:14;4.90;;;3.60;;
15393;SDS011;7795;47.986;11.868;2024-01-30T03:19:40;3.93;;;3.20;;
15393;SDS011;7795;47.986;11.868;2024-01-30T03:22:06;4.33;;;3.30;;
15393;SDS011;7795;47.986;11.868;2024-01-30T03:24:31;5.30;;;3.00;;
15393;SDS011;7795;47.986;11.868;2024-01-30T03:26:57;4.53;;;3.40;;
15393;SDS011;7795;47.986;11.868;2024-01-30T03:29:24;4.77;;;3.70;;
15393;SDS011;7795;47.986;11.868;2024-01-30T03:31:50;3.57;;;3.20;;
15393;SDS011;7795;47.986;11.868;2024-01-30T03:34:16;4.63;;;3.73;;
15393;SDS011;7795;47.986;11.868;2024-01-30T03:36:41;3.37;;;3.07;;
15393;SDS011;7795;47.986;11.868;2024-01-30T03:39:07;4.20;;;3.50;;
15393;SDS011;7795;47.986;11.868;2024-01-30T03:41:33;4.10;;;3.57;;
15393;SDS011;7795;47.986;11.868;2024-01-30T03:43:59;4.13;;;3.30;;
15393;SDS011;7795;47.986;11.868;2024-01-30T03:46:26;3.47;;;3.17;;
15393;SDS011;7795;47.986;11.868;2024-01-30T03:48:52;4.07;;;3.67;;
15393;SDS011;7795;47.986;11.868;2024-01-30T03:51:17;3.90;;;3.43;;
15393;SDS011;7795;47.986;11.868;2024-01-30T03:53:43;3.97;;;3.33;;
15393;SDS011;7795;47.986;11.868;2024-01-30T03:56:11;4.90;;;3.40;;
15393;SDS011;7795;47.986;11.868;2024-01-30T03:58:38;4.43;;;3.17;;
15393;SDS011;7795;47.986;11.868;2024-01-30T04:01:04;5.37;;;3.50;;
15393;SDS011;7795;47.986;11.868;2024-01-30T04:03:31;7.13;;;4.00;;
15393;SDS011;7795;47.986;11.868;2024-01-30T04:05:57;5.13;;;3.70;;
15393;SDS011;7795;47.986;11.868;2024-01-30T04:08:22;3.80;;;3.27;;
15393;SDS011;7795;47.986;11.868;2024-01-30T04:10:48;3.90;;;3.37;;
15393;SDS011;7795;47.986;11.868;2024-01-30T04:13:14;4.73;;;3.17;;
15393;SDS011;7795;47.986;11.868;2024-01-30T04:15:39;4.93;;;3.57;;
15393;SDS011;7795;47.986;11.868;2024-01-30T04:18:05;3.80;;;3.13;;
15393;SDS011;7795;47.986;11.868;2024-01-30T04:20:33;3.17;;;2.87;;
15393;SDS011;7795;47.986;11.868;2024-01-30T04:22:58;3.93;;;3.20;;
15393;SDS011;7795;47.986;11.868;2024-01-30T04:25:24;4.80;;;3.83;;
15393;SDS011;7795;47.986;11.868;2024-01-30T04:27:50;4.17;;;3.30;;
15393;SDS011;7795;47.986;11.868;2024-01-30T04:30:16;4.07;;;2.90;;
15393;SDS011;7795;47.986;11.868;2024-01-30T04:32:42;4.47;;;3.27;;
15393;SDS011;7795;47.986;11.868;2024-01-30T04:35:08;4.97;;;3.40;;
15393;SDS011;7795;47.986;11.868;2024-01-30T04:37:35;3.50;;;3.20;;
15393;SDS011;7795;47.986;11.868;2024-01-30T04:40:01;3.80;;;3.40;;
15393;SDS011;7795;47.986;11.868;2024-01-30T04:42:28;4.83;;;3.40;;
15393;SDS011;7795;47.986;11.868;2024-01-30T04:44:53;4.00;;;3.30;;
15393;SDS011;7795;47.986;11.868;2024-01-30T04:47:19;4.93;;;3.50;;
15393;SDS011;7795;47.986;11.868;2024-01-30T04:49:45;3.53;;;3.23;;
15393;SDS011;7795;47.986;11.868;2024-01-30T04:52:10;3.93;;;3.53;;
15393;SDS011;7795;47.986;11.868;2024-01-30T04:54:37;4.27;;;3.40;;
15393;SDS011;7795;47.986;11.868;2024-01-30T04:57:04;3.60;;;3.27;;
15393;SDS011;7795;47.986;11.868;2024-01-30T04:59:33;4.33;;;3.50;;
15393;SDS011;7795;47.986;11.868;2024-01-30T05:01:59;5.03;;;3.70;;
15393;SDS011;7795;47.986;11.868;2024-01-30T05:04:25;3.93;;;3.47;;
15393;SDS011;7795;47.986;11.868;2024-01-30T05:06:50;4.20;;;3.40;;
15393;SDS011;7795;47.986;11.868;2024-01-30T05:09:16;3.50;;;3.20;;
15393;SDS011;7795;47.986;11.868;2024-01-30T05:11:43;4.77;;;3.30;;
15393;SDS011;7795;47.986;11.868;2024-01-30T05:14:09;9.07;;;5.23;;
15393;SDS011;7795;47.986;11.868;2024-01-30T05:16:36;4.07;;;3.67;;
15393;SDS011;7795;47.986;11.868;2024-01-30T05:19:02;4.57;;;3.53;;
15393;SDS011;7795;47.986;11.868;2024-01-30T05:21:27;6.87;;;4.83;;
15393;SDS011;7795;47.986;11.868;2024-01-30T05:23:53;3.67;;;3.37;;
15393;SDS011;7795;47.986;11.868;2024-01-30T05:26:19;5.07;;;3.50;;
15393;SDS011;7795;47.986;11.868;2024-01-30T05:28:46;4.30;;;3.87;;
15393;SDS011;7795;47.986;11.868;2024-01-30T05:31:13;5.23;;;4.13;;
15393;SDS011;7795;47.986;11.868;2024-01-30T05:33:39;4.97;;;3.50;;
15393;SDS011;7795;47.986;11.868;2024-01-30T05:36:05;5.33;;;3.93;;
15393;SDS011;7795;47.986;11.868;2024-01-30T05:38:31;4.20;;;3.57;;
15393;SDS011;7795;47.986;11.868;2024-01-30T05:40:57;5.63;;;4.17;;
15393;SDS011;7795;47.986;11.868;2024-01-30T05:43:23;4.13;;;3.73;;
15393;SDS011;7795;47.986;11.868;2024-01-30T05:45:51;3.90;;;3.27;;
15393;SDS011;7795;47.986;11.868;2024-01-30T05:48:17;3.83;;;3.50;;
15393;SDS011;7795;47.986;11.868;2024-01-30T05:50:43;5.23;;;3.63;;
15393;SDS011;7795;47.986;11.868;2024-01-30T05:53:10;5.93;;;4.00;;
15393;SDS011;7795;47.986;11.868;2024-01-30T05:55:35;5.70;;;4.13;;
15393;SDS011;7795;47.986;11.868;2024-01-30T05:58:01;3.90;;;3.20;;
15393;SDS011;7795;47.986;11.868;2024-01-30T06:00:27;4.53;;;3.67;;
15393;SDS011;7795;47.986;11.868;2024-01-30T06:02:54;4.00;;;3.60;;
15393;SDS011;7795;47.986;11.868;2024-01-30T06:05:20;5.00;;;3.90;;
15393;SDS011;7795;47.986;11.868;2024-01-30T06:07:45;5.87;;;3.90;;
15393;SDS011;7795;47.986;11.868;2024-01-30T06:10:11;4.80;;;3.60;;
15393;SDS011;7795;47.986;11.868;2024-01-30T06:12:37;7.30;;;4.60;;
15393;SDS011;7795;47.986;11.868;2024-01-30T06:15:03;5.50;;;4.07;;
15393;SDS011;7795;47.986;11.868;2024-01-30T06:17:30;5.63;;;4.70;;
15393;SDS011;7795;47.986;11.868;2024-01-30T06:19:57;5.73;;;4.70;;
15393;SDS011;7795;47.986;11.868;2024-01-30T06:22:22;5.07;;;4.30;;
15393;SDS011;7795;47.986;11.868;2024-01-30T06:24:48;6.20;;;5.20;;
15393;SDS011;7795;47.986;11.868;2024-01-30T06:27:14;7.73;;;6.40;;
15393;SDS011;7795;47.986;11.868;2024-01-30T06:29:40;12.20;;;9.07;;
15393;SDS011;7795;47.986;11.868;2024-01-30T06:32:07;11.60;;;7.70;;
15393;SDS011;7795;47.986;11.868;2024-01-30T06:34:33;7.77;;;5.60;;
15393;SDS011;7795;47.986;11.868;2024-01-30T06:37:00;9.13;;;5.10;;
15393;SDS011;7795;47.986;11.868;2024-01-30T06:39:26;6.83;;;4.90;;
15393;SDS011;7795;47.986;11.868;2024-01-30T06:41:52;6.40;;;4.03;;
15393;SDS011;7795;47.986;11.868;2024-01-30T06:44:18;6.80;;;4.93;;
15393;SDS011;7795;47.986;11.868;2024-01-30T06:46:43;13.17;;;7.63;;
15393;SDS011;7795;47.986;11.868;2024-01-30T06:49:09;12.87;;;7.07;;
15393;SDS011;7795;47.986;11.868;2024-01-30T06:51:35;7.13;;;5.27;;
15393;SDS011;7795;47.986;11.868;2024-01-30T06:54:02;6.30;;;4.37;;
15393;SDS011;7795;47.986;11.868;2024-01-30T06:56:28;6.53;;;4.20;;
15393;SDS011;7795;47.986;11.868;2024-01-30T06:58:54;6.07;;;4.77;;
15393;SDS011;7795;47.986;11.868;2024-01-30T07:01:20;6.30;;;4.70;;
15393;SDS011;7795;47.986;11.868;2024-01-30T07:03:46;9.23;;;5.30;;
15393;SDS011;7795;47.986;11.868;2024-01-30T07:06:12;11.47;;;6.67;;
15393;SDS011;7795;47.986;11.868;2024-01-30T07:08:37;20.60;;;12.57;;
15393;SDS011;7795;47.986;11.868;2024-01-30T07:11:07;17.20;;;10.37;;
15393;SDS011;7795;47.986;11.868;2024-01-30T07:13:33;20.77;;;12.97;;
15393;SDS011;7795;47.986;11.868;2024-01-30T07:15:59;25.33;;;15.93;;
15393;SDS011;7795;47.986;11.868;2024-01-30T07:18:25;26.23;;;16.83;;
15393;SDS011;7795;47.986;11.868;2024-01-30T07:20:51;28.73;;;18.47;;
15393;SDS011;7795;47.986;11.868;2024-01-30T07:23:17;27.97;;;17.03;;
15393;SDS011;7795;47.986;11.868;2024-01-30T07:25:43;35.10;;;19.50;;
15393;SDS011;7795;47.986;11.868;2024-01-30T07:28:10;31.17;;;18.27;;
15393;SDS011;7795;47.986;11.868;2024-01-30T07:30:37;37.10;;;19.77;;
15393;SDS011;7795;47.986;11.868;2024-01-30T07:33:05;35.00;;;19.43;;
15393;SDS011;7795;47.986;11.868;2024-01-30T07:35:31;26.87;;;16.57;;
15393;SDS011;7795;47.986;11.868;2024-01-30T07:37:57;30.13;;;17.40;;
15393;SDS011;7795;47.986;11.868;2024-01-30T07:40:22;28.33;;;15.73;;
15393;SDS011;7795;47.986;11.868;2024-01-30T07:42:49;23.20;;;13.73;;
15393;SDS011;7795;47.986;11.868;2024-01-30T07:45:16;14.67;;;9.13;;
15393;SDS011;7795;47.986;11.868;2024-01-30T07:47:42;20.23;;;12.50;;
15393;SDS011;7795;47.986;11.868;2024-01-30T07:50:07;13.63;;;9.47;;
15393;SDS011;7795;47.986;11.868;2024-01-30T07:52:34;14.43;;;9.20;;
15393;SDS011;7795;47.986;11.868;2024-01-30T07:55:00;8.70;;;6.43;;
15393;SDS011;7795;47.986;11.868;2024-01-30T07:57:25;12.00;;;8.57;;
15393;SDS011;7795;47.986;11.868;2024-01-30T07:59:51;11.87;;;7.07;;
15393;SDS011;7795;47.986;11.868;2024-01-30T08:02:18;11.80;;;7.73;;
15393;SDS011;7795;47.986;11.868;2024-01-30T08:04:44;12.13;;;8.13;;
15393;SDS011;7795;47.986;11.868;2024-01-30T08:07:13;10.80;;;8.90;;
15393;SDS011;7795;47.986;11.868;2024-01-30T08:09:39;12.73;;;9.97;;
15393;SDS011;7795;47.986;11.868;2024-01-30T08:12:05;13.90;;;10.63;;
15393;SDS011;7795;47.986;11.868;2024-01-30T08:14:31;15.53;;;10.73;;
15393;SDS011;7795;47.986;11.868;2024-01-30T08:16:57;11.27;;;7.73;;
15393;SDS011;7795;47.986;11.868;2024-01-30T08:19:24;10.27;;;7.43;;
15393;SDS011;7795;47.986;11.868;2024-01-30T08:21:50;8.27;;;5.33;;
15393;SDS011;7795;47.986;11.868;2024-01-30T08:24:15;6.23;;;4.60;;
15393;SDS011;7795;47.986;11.868;2024-01-30T08:26:41;5.80;;;4.70;;
15393;SDS011;7795;47.986;11.868;2024-01-30T08:29:07;5.07;;;4.30;;
15393;SDS011;7795;47.986;11.868;2024-01-30T08:31:33;4.23;;;3.83;;
15393;SDS011;7795;47.986;11.868;2024-01-30T08:33:58;3.90;;;3.37;;
15393;SDS011;7795;47.986;11.868;2024-01-30T08:36:25;4.10;;;3.50;;
15393;SDS011;7795;47.986;11.868;2024-01-30T08:38:51;3.63;;;2.87;;
15393;SDS011;7795;47.986;11.868;2024-01-30T08:41:17;2.67;;;2.43;;
15393;SDS011;7795;47.986;11.868;2024-01-30T08:43:43;3.90;;;3.03;;
15393;SDS011;7795;47.986;11.868;2024-01-30T08:46:09;4.20;;;2.90;;
15393;SDS011;7795;47.986;11.868;2024-01-30T08:48:35;3.00;;;2.70;;
15393;SDS011;7795;47.986;11.868;2024-01-30T08:51:01;4.63;;;3.67;;
15393;SDS011;7795;47.986;11.868;2024-01-30T08:53:28;4.53;;;3.17;;
15393;SDS011;7795;47.986;11.868;2024-01-30T08:55:54;5.60;;;4.27;;
15393;SDS011;7795;47.986;11.868;2024-01-30T08:58:20;6.60;;;4.23;;
15393;SDS011;7795;47.986;11.868;2024-01-30T09:00:45;4.37;;;3.47;;
15393;SDS011;7795;47.986;11.868;2024-01-30T09:03:12;5.70;;;3.87;;
15393;SDS011;7795;47.986;11.868;2024-01-30T09:05:37;4.47;;;3.47;;
15393;SDS011;7795;47.986;11.868;2024-01-30T09:08:03;4.30;;;3.10;;
15393;SDS011;7795;47.986;11.868;2024-01-30T09:10:30;6.37;;;3.00;;
15393;SDS011;7795;47.986;11.868;2024-01-30T09:12:56;5.33;;;3.17;;
15393;SDS011;7795;47.986;11.868;2024-01-30T09:15:22;2.30;;;2.10;;
15393;SDS011;7795;47.986;11.868;2024-01-30T09:17:48;3.13;;;2.40;;
15393;SDS011;7795;47.986;11.868;2024-01-30T09:20:13;3.07;;;2.70;;
15393;SDS011;7795;47.986;11.868;2024-01-30T09:22:39;4.07;;;2.90;;
15393;SDS011;7795;47.986;11.868;2024-01-30T09:25:05;3.53;;;3.00;;
15393;SDS011;7795;47.986;11.868;2024-01-30T09:27:32;6.27;;;3.30;;
15393;SDS011;7795;47.986;11.868;2024-01-30T09:29:58;4.33;;;3.30;;
15393;SDS011;7795;47.986;11.868;2024-01-30T09:32:24;8.70;;;5.20;;
15393;SDS011;7795;47.986;11.868;2024-01-30T09:34:49;6.73;;;5.00;;
15393;SDS011;7795;47.986;11.868;2024-01-30T09:37:15;4.53;;;4.03;;
15393;SDS011;7795;47.986;11.868;2024-01-30T09:39:43;6.33;;;4.23;;
15393;SDS011;7795;47.986;11.868;2024-01-30T09:42:10;4.57;;;3.60;;
15393;SDS011;7795;47.986;11.868;2024-01-30T09:44:43;4.40;;;3.80;;
15393;SDS011;7795;47.986;11.868;2024-01-30T09:47:08;4.60;;;3.53;;
15393;SDS011;7795;47.986;11.868;2024-01-30T09:49:35;5.33;;;4.03;;
15393;SDS011;7795;47.986;11.868;2024-01-30T09:52:01;5.40;;;3.80;;
15393;SDS011;7795;47.986;11.868;2024-01-30T09:54:28;4.67;;;3.83;;
15393;SDS011;7795;47.986;11.868;2024-01-30T09:56:56;4.90;;;3.73;;
15393;SDS011;7795;47.986;11.868;2024-01-30T09:59:22;5.93;;;3.73;;
15393;SDS011;7795;47.986;11.868;2024-01-30T10:01:49;11.57;;;4.20;;
15393;SDS011;7795;47.986;11.868;2024-01-30T10:04:15;6.60;;;4.30;;
15393;SDS011;7795;47.986;11.868;2024-01-30T10:06:41;3.90;;;3.50;;
15393;SDS011;7795;47.986;11.868;2024-01-30T10:09:07;4.87;;;3.77;;
15393;SDS011;7795;47.986;11.868;2024-01-30T10:11:34;5.77;;;4.37;;
15393;SDS011;7795;47.986;11.868;2024-01-30T10:14:00;5.13;;;3.60;;
15393;SDS011;7795;47.986;11.868;2024-01-30T10:16:26;5.63;;;4.10;;
15393;SDS011;7795;47.986;11.868;2024-01-30T10:18:53;4.93;;;4.00;;
15393;SDS011;7795;47.986;11.868;2024-01-30T10:21:19;7.23;;;4.00;;
15393;SDS011;7795;47.986;11.868;2024-01-30T10:23:46;5.30;;;4.50;;
15393;SDS011;7795;47.986;11.868;2024-01-30T10:26:12;6.57;;;4.47;;
15393;SDS011;7795;47.986;11.868;2024-01-30T10:28:38;5.50;;;4.50;;
15393;SDS011;7795;47.986;11.868;2024-01-30T10:31:03;5.70;;;4.53;;
15393;SDS011;7795;47.986;11.868;2024-01-30T10:33:30;8.80;;;4.50;;
15393;SDS011;7795;47.986;11.868;2024-01-30T10:36:00;5.57;;;3.40;;
15393;SDS011;7795;47.986;11.868;2024-01-30T10:38:27;4.87;;;3.27;;
15393;SDS011;7795;47.986;11.868;2024-01-30T10:40:55;5.83;;;3.67;;
15393;SDS011;7795;47.986;11.868;2024-01-30T10:43:22;3.77;;;2.93;;
15393;SDS011;7795;47.986;11.868;2024-01-30T10:45:49;5.23;;;3.40;;
15393;SDS011;7795;47.986;11.868;2024-01-30T10:48:18;4.33;;;3.20;;
15393;SDS011;7795;47.986;11.868;2024-01-30T10:50:47;5.13;;;3.40;;
15393;SDS011;7795;47.986;11.868;2024-01-30T10:53:16;4.50;;;2.83;;
15393;SDS011;7795;47.986;11.868;2024-01-30T10:55:44;6.17;;;3.10;;
15393;SDS011;7795;47.986;11.868;2024-01-30T10:58:11;3.53;;;2.50;;
15393;SDS011;7795;47.986;11.868;2024-01-30T11:00:38;4.23;;;2.40;;
15393;SDS011;7795;47.986;11.868;2024-01-30T11:03:04;3.77;;;2.53;;
15393;SDS011;7795;47.986;11.868;2024-01-30T11:05:30;4.30;;;2.30;;
15393;SDS011;7795;47.986;11.868;2024-01-30T11:07:56;2.83;;;2.47;;
15393;SDS011;7795;47.986;11.868;2024-01-30T11:10:23;2.83;;;2.00;;
15393;SDS011;7795;47.986;11.868;2024-01-30T11:12:50;6.73;;;2.33;;
15393;SDS011;7795;47.986;11.868;2024-01-30T11:15:16;6.07;;;2.03;;
15393;SDS011;7795;47.986;11.868;2024-01-30T11:17:43;2.47;;;1.80;;
15393;SDS011;7795;47.986;11.868;2024-01-30T11:20:09;4.40;;;1.93;;
15393;SDS011;7795;47.986;11.868;2024-01-30T11:22:36;6.17;;;2.07;;
15393;SDS011;7795;47.986;11.868;2024-01-30T11:25:02;2.07;;;1.70;;
15393;SDS011;7795;47.986;11.868;2024-01-30T11:27:30;1.80;;;1.70;;
15393;SDS011;7795;47.986;11.868;2024-01-30T11:30:00;4.67;;;1.87;;
15393;SDS011;7795;47.986;11.868;2024-01-30T11:32:26;11.33;;;2.60;;
15393;SDS011;7795;47.986;11.868;2024-01-30T11:34:52;2.50;;;1.77;;
15393;SDS011;7795;47.986;11.868;2024-01-30T11:37:19;5.50;;;2.53;;
15393;SDS011;7795;47.986;11.868;2024-01-30T11:39:50;3.37;;;2.07;;
15393;SDS011;7795;47.986;11.868;2024-01-30T11:42:16;8.77;;;2.50;;
15393;SDS011;7795;47.986;11.868;2024-01-30T11:44:47;6.87;;;1.70;;
15393;SDS011;7795;47.986;11.868;2024-01-30T11:47:13;6.70;;;2.00;;
15393;SDS011;7795;47.986;11.868;2024-01-30T11:49:39;3.77;;;1.93;;
15393;SDS011;7795;47.986;11.868;2024-01-30T11:52:05;5.17;;;1.80;;
15393;SDS011;7795;47.986;11.868;2024-01-30T11:54:31;4.40;;;1.90;;
15393;SDS011;7795;47.986;11.868;2024-01-30T11:56:57;23.10;;;3.17;;
15393;SDS011;7795;47.986;11.868;2024-01-30T11:59:23;8.20;;;2.57;;
15393;SDS011;7795;47.986;11.868;2024-01-30T12:01:51;5.53;;;2.03;;
15393;SDS011;7795;47.986;11.868;2024-01-30T12:04:17;14.50;;;2.57;;
15393;SDS011;7795;47.986;11.868;2024-01-30T12:06:43;8.73;;;2.37;;
15393;SDS011;7795;47.986;11.868;2024-01-30T12:09:09;3.53;;;1.37;;
15393;SDS011;7795;47.986;11.868;2024-01-30T12:11:43;7.57;;;1.97;;
15393;SDS011;7795;47.986;11.868;2024-01-30T12:14:09;5.30;;;2.43;;
15393;SDS011;7795;47.986;11.868;2024-01-30T12:16:35;6.20;;;1.90;;
15393;SDS011;7795;47.986;11.868;2024-01-30T12:19:02;6.47;;;2.60;;
15393;SDS011;7795;47.986;11.868;2024-01-30T12:21:28;10.73;;;2.60;;
15393;SDS011;7795;47.986;11.868;2024-01-30T12:23:54;6.37;;;2.03;;
15393;SDS011;7795;47.986;11.868;2024-01-30T12:26:20;9.33;;;2.37;;
15393;SDS011;7795;47.986;11.868;2024-01-30T12:28:48;7.40;;;2.00;;
15393;SDS011;7795;47.986;11.868;2024-01-30T12:31:15;5.00;;;1.40;;
15393;SDS011;7795;47.986;11.868;2024-01-30T12:33:41;8.73;;;2.30;;
15393;SDS011;7795;47.986;11.868;2024-01-30T12:36:08;16.27;;;3.60;;
15393;SDS011;7795;47.986;11.868;2024-01-30T12:38:34;9.90;;;2.93;;
15393;SDS011;7795;47.986;11.868;2024-01-30T12:40:59;6.60;;;1.87;;
15393;SDS011;7795;47.986;11.868;2024-01-30T12:43:25;6.00;;;2.20;;
15393;SDS011;7795;47.986;11.868;2024-01-30T12:45:52;9.10;;;2.27;;
15393;SDS011;7795;47.986;11.868;2024-01-30T12:48:17;9.53;;;2.63;;
15393;SDS011;7795;47.986;11.868;2024-01-30T12:50:43;5.73;;;2.03;;
15393;SDS011;7795;47.986;11.868;2024-01-30T12:53:10;5.73;;;1.63;;
15393;SDS011;7795;47.986;11.868;2024-01-30T12:55:37;7.83;;;2.43;;
15393;SDS011;7795;47.986;11.868;2024-01-30T12:58:03;9.03;;;1.97;;
15393;SDS011;7795;47.986;11.868;2024-01-30T13:00:29;6.77;;;1.90;;
15393;SDS011;7795;47.986;11.868;2024-01-30T13:02:55;8.10;;;2.13;;
15393;SDS011;7795;47.986;11.868;2024-01-30T13:05:21;7.80;;;1.70;;
15393;SDS011;7795;47.986;11.868;2024-01-30T13:07:47;6.63;;;1.77;;
15393;SDS011;7795;47.986;11.868;2024-01-30T13:10:14;8.23;;;2.90;;
15393;SDS011;7795;47.986;11.868;2024-01-30T13:12:39;12.00;;;2.97;;
15393;SDS011;7795;47.986;11.868;2024-01-30T13:15:05;5.90;;;2.33;;
15393;SDS011;7795;47.986;11.868;2024-01-30T13:17:31;8.87;;;2.40;;
15393;SDS011;7795;47.986;11.868;2024-01-30T13:19:57;10.23;;;2.80;;
15393;SDS011;7795;47.986;11.868;2024-01-30T13:22:23;11.00;;;2.47;;
15393;SDS011;7795;47.986;11.868;2024-01-30T13:24:49;8.23;;;2.53;;
15393;SDS011;7795;47.986;11.868;2024-01-30T13:27:16;4.73;;;2.00;;
15393;SDS011;7795;47.986;11.868;2024-01-30T13:29:42;3.30;;;1.57;;
15393;SDS011;7795;47.986;11.868;2024-01-30T13:32:08;11.07;;;2.47;;
15393;SDS011;7795;47.986;11.868;2024-01-30T13:34:34;3.73;;;1.60;;
15393;SDS011;7795;47.986;11.868;2024-01-30T13:37:00;2.87;;;1.80;;
15393;SDS011;7795;47.986;11.868;2024-01-30T13:39:25;22.57;;;5.27;;
15393;SDS011;7795;47.986;11.868;2024-01-30T13:41:51;8.83;;;3.67;;
15393;SDS011;7795;47.986;11.868;2024-01-30T13:44:18;6.83;;;2.27;;
15393;SDS011;7795;47.986;11.868;2024-01-30T13:46:45;8.63;;;1.90;;
15393;SDS011;7795;47.986;11.868;2024-01-30T13:49:11;11.13;;;3.07;;
15393;SDS011;7795;47.986;11.868;2024-01-30T13:51:37;9.10;;;2.03;;
15393;SDS011;7795;47.986;11.868;2024-01-30T13:54:03;7.67;;;1.90;;
15393;SDS011;7795;47.986;11.868;2024-01-30T13:56:29;5.23;;;1.87;;
15393;SDS011;7795;47.986;11.868;2024-01-30T13:58:55;7.53;;;1.53;;
15393;SDS011;7795;47.986;11.868;2024-01-30T14:01:23;3.57;;;1.30;;
15393;SDS011;7795;47.986;11.868;2024-01-30T14:03:49;9.03;;;1.80;;
15393;SDS011;7795;47.986;11.868;2024-01-30T14:06:15;4.67;;;1.90;;
15393;SDS011;7795;47.986;11.868;2024-01-30T14:08:40;12.97;;;2.60;;
15393;SDS011;7795;47.986;11.868;2024-01-30T14:11:06;9.20;;;1.97;;
15393;SDS011;7795;47.986;11.868;2024-01-30T14:13:32;8.33;;;2.50;;
15393;SDS011;7795;47.986;11.868;2024-01-30T14:15:57;10.83;;;2.43;;
15393;SDS011;7795;47.986;11.868;2024-01-30T14:18:25;6.57;;;1.90;;
15393;SDS011;7795;47.986;11.868;2024-01-30T14:20:50;4.63;;;1.63;;
15393;SDS011;7795;47.986;11.868;2024-01-30T14:23:17;2.37;;;1.60;;
15393;SDS011;7795;47.986;11.868;2024-01-30T14:25:43;9.77;;;1.80;;
15393;SDS011;7795;47.986;11.868;2024-01-30T14:28:08;8.07;;;2.17;;
15393;SDS011;7795;47.986;11.868;2024-01-30T14:30:34;5.30;;;1.53;;
15393;SDS011;7795;47.986;11.868;2024-01-30T14:33:00;18.87;;;3.43;;
15393;SDS011;7795;47.986;11.868;2024-01-30T14:35:27;6.60;;;2.00;;
15393;SDS011;7795;47.986;11.868;2024-01-30T14:37:53;7.03;;;2.23;;
15393;SDS011;7795;47.986;11.868;2024-01-30T14:40:19;5.20;;;1.93;;